Time;durP1;ratioP1;P1;durP2;ratioP2;P2;SDS_P1;SDS_P2;PMS_P1;PMS_P2;Temp;Humidity;BMP_temperature;BMP_pressure;BME280_temperature;BME280_humidity;BME280_pressure;Samples;Min_cycle;Max_cycle;Signal;HPM_P1;HPM_P2
2021/06/14 00:01:37;;;;;;;1.10;1.10;;;;;;;;;;5073612;28;20197;-87
2021/06/14 00:04:04;;;;;;;1.13;1.00;;;;;;;;;;5073884;28;20189;-87
2021/06/14 00:06:34;;;;;;;1.60;1.50;;;;;;;;;;5073404;28;20205;-86
2021/06/14 00:09:03;;;;;;;1.75;1.33;;;;;;;;;;5072790;28;20219;-86
2021/06/14 00:11:32;;;;;;;1.48;1.30;;;;;;;;;;5073078;28;20626;-86
2021/06/14 00:14:00;;;;;;;1.63;1.52;;;;;;;;;;5073011;28;20192;-86
2021/06/14 00:16:28;;;;;;;1.60;1.35;;;;;;;;;;5072244;28;20212;-88
2021/06/14 00:18:58;;;;;;;1.60;1.30;;;;;;;;;;5072224;28;20239;-86
2021/06/14 00:21:27;;;;;;;1.52;1.20;;;;;;;;;;5073039;28;20196;-86
2021/06/14 00:23:55;;;;;;;1.38;1.23;;;;;;;;;;5091708;28;20413;-87
2021/06/14 00:26:22;;;;;;;1.38;1.27;;;;;;;;;;5092885;28;20196;-86
2021/06/14 00:28:51;;;;;;;2.33;1.60;;;;;;;;;;5092752;28;20228;-87
2021/06/14 00:31:18;;;;;;;1.63;1.52;;;;;;;;;;5092873;28;20204;-85
2021/06/14 00:33:47;;;;;;;1.33;1.30;;;;;;;;;;5092973;28;20214;-87
2021/06/14 00:36:22;;;;;;;1.85;1.42;;;;;;;;;;5092685;28;20679;-87
2021/06/14 00:38:50;;;;;;;1.40;1.30;;;;;;;;;;5092461;28;20222;-86
2021/06/14 00:41:19;;;;;;;1.20;1.10;;;;;;;;;;5092394;28;20732;-86
2021/06/14 00:43:47;;;;;;;1.13;1.13;;;;;;;;;;5092990;28;20187;-86
2021/06/14 00:46:16;;;;;;;2.13;1.60;;;;;;;;;;5092746;28;20325;-86
2021/06/14 00:48:43;;;;;;;1.45;1.35;;;;;;;;;;5092741;28;20224;-87
2021/06/14 00:51:11;;;;;;;1.65;1.55;;;;;;;;;;5108008;28;20231;-86
2021/06/14 00:53:41;;;;;;;1.75;1.55;;;;;;;;;;5113304;28;20180;-86
2021/06/14 00:56:12;;;;;;;2.13;2.03;;;;;;;;;;5111115;28;20641;-85
2021/06/14 00:58:41;;;;;;;1.25;1.15;;;;;;;;;;5111439;28;20227;-86
2021/06/14 01:01:10;;;;;;;3.88;1.50;;;;;;;;;;5111296;28;20187;-86
2021/06/14 01:03:39;;;;;;;1.15;1.05;;;;;;;;;;5110643;28;20195;-85
2021/06/14 01:06:10;;;;;;;1.20;1.10;;;;;;;;;;5111032;28;20259;-85
2021/06/14 01:08:42;;;;;;;1.20;1.10;;;;;;;;;;5110830;28;20222;-86
2021/06/14 01:11:14;;;;;;;1.17;1.13;;;;;;;;;;5111008;28;20207;-85
2021/06/14 01:13:48;;;;;;;1.15;1.10;;;;;;;;;;5111083;28;20191;-86
2021/06/14 01:16:23;;;;;;;1.38;1.15;;;;;;;;;;5110815;28;20192;-85
2021/06/14 01:18:56;;;;;;;1.70;1.60;;;;;;;;;;5110586;28;20226;-86
2021/06/14 01:21:30;;;;;;;1.00;1.00;;;;;;;;;;5111024;28;20191;-86
2021/06/14 01:24:36;;;;;;;1.63;1.52;;;;;;;;;;5111169;28;20183;-86
2021/06/14 01:27:14;;;;;;;1.65;1.40;;;;;;;;;;5111072;28;20203;-86
2021/06/14 01:29:42;;;;;;;1.20;0.93;;;;;;;;;;5110519;28;20222;-86
2021/06/14 01:32:10;;;;;;;1.00;1.00;;;;;;;;;;5110545;28;20203;-85
2021/06/14 01:34:40;;;;;;;0.95;0.90;;;;;;;;;;5110308;28;20188;-86
2021/06/14 01:37:09;;;;;;;0.90;0.90;;;;;;;;;;5089738;28;20243;-85
2021/06/14 01:39:39;;;;;;;0.90;0.90;;;;;;;;;;5083003;28;20232;-86
2021/06/14 01:42:08;;;;;;;1.15;1.05;;;;;;;;;;5073738;28;20585;-86
2021/06/14 01:44:37;;;;;;;1.30;1.20;;;;;;;;;;5074474;28;20193;-86
2021/06/14 01:47:07;;;;;;;1.00;1.00;;;;;;;;;;5074362;28;20191;-85
2021/06/14 01:49:35;;;;;;;1.48;1.38;;;;;;;;;;5073466;28;20216;-85
2021/06/14 01:52:04;;;;;;;1.13;1.13;;;;;;;;;;5091843;28;20205;-86
2021/06/14 01:54:31;;;;;;;1.45;1.35;;;;;;;;;;5078283;28;20566;-86
2021/06/14 01:57:00;;;;;;;1.17;1.08;;;;;;;;;;5074201;28;20211;-88
2021/06/14 01:59:33;;;;;;;2.13;1.40;;;;;;;;;;5082552;28;20216;-86
2021/06/14 02:02:10;;;;;;;1.20;1.15;;;;;;;;;;5082600;28;20203;-85
2021/06/14 02:04:40;;;;;;;1.52;1.42;;;;;;;;;;5095461;28;20219;-87
2021/06/14 02:07:09;;;;;;;1.55;1.45;;;;;;;;;;5096407;28;20291;-86
2021/06/14 02:09:36;;;;;;;1.77;1.40;;;;;;;;;;5096450;28;20220;-86
2021/06/14 02:12:08;;;;;;;2.42;1.80;;;;;;;;;;5096289;28;20222;-86
2021/06/14 02:14:40;;;;;;;1.50;1.40;;;;;;;;;;5095778;28;20188;-86
2021/06/14 02:17:11;;;;;;;1.98;1.50;;;;;;;;;;5096297;28;20208;-85
2021/06/14 02:19:40;;;;;;;1.40;1.30;;;;;;;;;;5095935;28;20232;-87
2021/06/14 02:22:08;;;;;;;1.70;1.60;;;;;;;;;;5095801;28;20189;-86
2021/06/14 02:24:35;;;;;;;1.23;1.20;;;;;;;;;;5087158;28;20204;-86
2021/06/14 02:27:05;;;;;;;2.08;1.95;;;;;;;;;;5074167;28;20204;-86
2021/06/14 02:29:33;;;;;;;1.70;1.60;;;;;;;;;;5079922;28;20215;-86
2021/06/14 02:32:01;;;;;;;1.50;1.40;;;;;;;;;;5110607;28;20206;-86
2021/06/14 02:34:31;;;;;;;1.20;1.10;;;;;;;;;;5096077;28;20668;-86
2021/06/14 02:36:59;;;;;;;1.73;1.63;;;;;;;;;;5097377;28;20192;-86
2021/06/14 02:39:31;;;;;;;1.10;1.10;;;;;;;;;;5096171;28;20243;-86
2021/06/14 02:42:01;;;;;;;1.70;1.60;;;;;;;;;;5096205;28;20196;-86
2021/06/14 02:44:29;;;;;;;1.10;1.08;;;;;;;;;;5097334;28;20202;-85
2021/06/14 02:47:03;;;;;;;2.08;1.50;;;;;;;;;;5096875;28;20185;-86
2021/06/14 02:49:33;;;;;;;1.15;1.10;;;;;;;;;;5098842;28;20220;-86
2021/06/14 02:52:04;;;;;;;1.23;1.15;;;;;;;;;;5106066;28;20615;-87
2021/06/14 02:54:37;;;;;;;1.30;1.20;;;;;;;;;;5105797;28;20196;-85
2021/06/14 02:57:10;;;;;;;1.10;1.10;;;;;;;;;;5096996;28;20654;-85
2021/06/14 02:59:39;;;;;;;1.67;1.58;;;;;;;;;;5096932;28;20224;-85
2021/06/14 03:02:08;;;;;;;1.20;1.10;;;;;;;;;;5097805;28;20196;-86
2021/06/14 03:04:37;;;;;;;2.08;1.00;;;;;;;;;;5097186;28;20275;-85
2021/06/14 03:07:05;;;;;;;1.40;1.30;;;;;;;;;;5097945;28;20662;-85
2021/06/14 03:09:33;;;;;;;1.48;0.90;;;;;;;;;;5096351;28;20253;-85
2021/06/14 03:12:01;;;;;;;1.75;1.05;;;;;;;;;;5093710;28;20200;-85
2021/06/14 03:14:29;;;;;;;1.42;1.33;;;;;;;;;;5094825;28;20193;-85
2021/06/14 03:16:57;;;;;;;1.20;1.10;;;;;;;;;;5095436;28;20207;-85
2021/06/14 03:19:25;;;;;;;1.45;1.35;;;;;;;;;;5094902;28;20224;-85
2021/06/14 03:21:54;;;;;;;1.17;1.15;;;;;;;;;;5096991;28;20698;-85
2021/06/14 03:24:21;;;;;;;1.25;1.15;;;;;;;;;;5096774;28;20200;-86
2021/06/14 03:26:49;;;;;;;1.00;1.00;;;;;;;;;;5098303;28;20188;-86
2021/06/14 03:29:30;;;;;;;1.30;1.20;;;;;;;;;;5097577;28;20212;-85
2021/06/14 03:31:58;;;;;;;1.10;1.10;;;;;;;;;;5098078;28;20570;-86
2021/06/14 03:34:27;;;;;;;2.15;1.60;;;;;;;;;;5098311;28;20207;-86
2021/06/14 03:36:58;;;;;;;1.40;1.30;;;;;;;;;;5098954;28;20534;-85
2021/06/14 03:39:27;;;;;;;1.08;1.02;;;;;;;;;;5096732;28;20220;-86
2021/06/14 03:41:55;;;;;;;1.83;1.33;;;;;;;;;;5096702;28;20252;-86
2021/06/14 03:44:22;;;;;;;1.15;1.10;;;;;;;;;;5097902;28;20208;-86
2021/06/14 03:46:51;;;;;;;1.20;1.20;;;;;;;;;;5097419;28;20218;-86
2021/06/14 03:49:19;;;;;;;1.10;1.10;;;;;;;;;;5096356;28;20692;-86
2021/06/14 03:51:47;;;;;;;1.40;1.30;;;;;;;;;;5096504;28;20200;-87
2021/06/14 03:54:16;;;;;;;1.55;1.45;;;;;;;;;;5097355;28;20210;-86
2021/06/14 03:56:43;;;;;;;1.52;1.42;;;;;;;;;;5096112;28;20184;-86
2021/06/14 03:59:11;;;;;;;1.33;1.23;;;;;;;;;;5095877;28;20225;-86
2021/06/14 04:01:38;;;;;;;2.45;1.40;;;;;;;;;;5094450;28;20185;-86
2021/06/14 04:04:22;;;;;;;1.27;1.20;;;;;;;;;;5094121;28;20196;-86
2021/06/14 04:06:50;;;;;;;4.72;1.10;;;;;;;;;;5095733;28;20180;-86
2021/06/14 04:09:19;;;;;;;2.03;1.70;;;;;;;;;;5095248;28;20228;-85
2021/06/14 04:11:46;;;;;;;1.73;1.63;;;;;;;;;;5097497;28;20569;-86
2021/06/14 04:14:13;;;;;;;1.38;1.27;;;;;;;;;;5099470;28;20203;-86
2021/06/14 04:16:41;;;;;;;2.92;1.70;;;;;;;;;;5097458;28;20185;-86
2021/06/14 04:19:08;;;;;;;1.55;1.40;;;;;;;;;;5098093;28;20224;-86
2021/06/14 04:21:36;;;;;;;1.88;1.77;;;;;;;;;;5097091;28;20192;-85
2021/06/14 04:24:05;;;;;;;2.03;1.77;;;;;;;;;;5097327;28;20520;-85
2021/06/14 04:26:34;;;;;;;2.50;2.30;;;;;;;;;;5098982;28;20737;-86
2021/06/14 04:29:01;;;;;;;2.38;2.17;;;;;;;;;;5096856;28;20736;-86
2021/06/14 04:31:29;;;;;;;2.58;2.00;;;;;;;;;;5097230;28;20187;-86
2021/06/14 04:33:56;;;;;;;2.85;2.65;;;;;;;;;;5095888;28;20660;-86
2021/06/14 04:36:24;;;;;;;1.77;1.63;;;;;;;;;;5096449;28;20211;-86
2021/06/14 04:38:51;;;;;;;3.80;2.10;;;;;;;;;;5097736;28;20231;-86
2021/06/14 04:41:19;;;;;;;2.47;2.03;;;;;;;;;;5101452;28;20199;-86
2021/06/14 04:43:48;;;;;;;2.08;1.90;;;;;;;;;;5097107;28;20204;-86
2021/06/14 04:46:16;;;;;;;1.90;1.80;;;;;;;;;;5096936;28;20219;-85
2021/06/14 04:48:43;;;;;;;2.58;2.35;;;;;;;;;;5097197;28;20307;-86
2021/06/14 04:51:11;;;;;;;3.50;2.20;;;;;;;;;;5095309;28;20236;-85
2021/06/14 04:53:40;;;;;;;2.97;2.33;;;;;;;;;;5097245;28;20700;-85
2021/06/14 04:56:07;;;;;;;2.15;2.05;;;;;;;;;;5097296;28;20295;-85
2021/06/14 04:58:35;;;;;;;2.67;1.90;;;;;;;;;;5097956;28;20231;-86
2021/06/14 05:01:04;;;;;;;2.35;1.60;;;;;;;;;;5097816;28;20196;-86
2021/06/14 05:03:32;;;;;;;4.10;2.72;;;;;;;;;;5098349;28;20199;-85
2021/06/14 05:05:59;;;;;;;3.38;2.50;;;;;;;;;;5096697;28;20181;-85
2021/06/14 05:08:27;;;;;;;2.92;2.67;;;;;;;;;;5096175;28;20291;-85
2021/06/14 05:10:54;;;;;;;2.88;2.47;;;;;;;;;;5098490;28;20256;-85
2021/06/14 05:13:22;;;;;;;3.28;2.55;;;;;;;;;;5097829;28;20260;-85
2021/06/14 05:15:49;;;;;;;2.85;2.58;;;;;;;;;;5096944;28;20212;-85
2021/06/14 05:18:18;;;;;;;2.40;2.20;;;;;;;;;;5097796;28;20177;-85
2021/06/14 05:20:45;;;;;;;3.10;2.22;;;;;;;;;;5096782;28;20224;-85
2021/06/14 05:23:13;;;;;;;2.33;2.13;;;;;;;;;;5096449;28;20199;-85
2021/06/14 05:25:40;;;;;;;2.28;2.10;;;;;;;;;;5097321;28;20199;-85
2021/06/14 05:28:08;;;;;;;2.10;1.90;;;;;;;;;;5097040;28;20318;-85
2021/06/14 05:30:35;;;;;;;3.08;2.65;;;;;;;;;;5098186;28;20228;-86
2021/06/14 05:33:03;;;;;;;2.28;2.13;;;;;;;;;;5097678;28;20814;-85
2021/06/14 05:35:32;;;;;;;2.10;1.90;;;;;;;;;;5098665;28;20214;-85
2021/06/14 05:37:59;;;;;;;2.17;1.85;;;;;;;;;;5098684;28;20209;-85
2021/06/14 05:40:26;;;;;;;2.67;2.45;;;;;;;;;;5098095;28;20208;-85
2021/06/14 05:42:54;;;;;;;2.50;2.30;;;;;;;;;;5097814;28;20208;-85
2021/06/14 05:45:22;;;;;;;3.20;2.53;;;;;;;;;;5098770;28;20211;-86
2021/06/14 05:47:49;;;;;;;2.38;2.13;;;;;;;;;;5097150;28;20192;-86
2021/06/14 05:50:16;;;;;;;3.60;1.88;;;;;;;;;;5097626;28;20232;-86
2021/06/14 05:52:45;;;;;;;2.20;2.00;;;;;;;;;;5097511;28;20201;-86
2021/06/14 05:55:13;;;;;;;2.00;1.80;;;;;;;;;;5097123;28;20204;-86
2021/06/14 05:57:41;;;;;;;2.65;2.33;;;;;;;;;;5095210;28;20215;-86
2021/06/14 06:00:10;;;;;;;4.65;2.63;;;;;;;;;;5097594;28;20239;-86
2021/06/14 06:02:38;;;;;;;2.58;2.20;;;;;;;;;;5098078;28;20185;-86
2021/06/14 06:05:07;;;;;;;3.25;2.47;;;;;;;;;;5096426;28;20180;-86
2021/06/14 06:07:36;;;;;;;2.92;2.63;;;;;;;;;;5095246;28;20201;-86
2021/06/14 06:10:06;;;;;;;2.78;2.28;;;;;;;;;;5095621;28;20269;-86
2021/06/14 06:12:33;;;;;;;2.55;2.35;;;;;;;;;;5094711;28;20208;-86
2021/06/14 06:15:02;;;;;;;2.80;2.40;;;;;;;;;;5096121;28;20181;-86
2021/06/14 06:17:29;;;;;;;2.70;2.47;;;;;;;;;;5094298;28;20262;-87
2021/06/14 06:19:57;;;;;;;3.75;2.88;;;;;;;;;;5094012;28;20239;-85
2021/06/14 06:22:25;;;;;;;2.92;2.58;;;;;;;;;;5094145;28;20177;-86
2021/06/14 06:24:52;;;;;;;2.30;1.88;;;;;;;;;;5095397;28;20299;-85
2021/06/14 06:27:21;;;;;;;3.83;2.05;;;;;;;;;;5097125;28;20204;-85
2021/06/14 06:29:48;;;;;;;3.42;2.63;;;;;;;;;;5097719;28;20217;-85
2021/06/14 06:32:16;;;;;;;3.05;2.75;;;;;;;;;;5097584;28;20211;-86
2021/06/14 06:34:43;;;;;;;2.60;1.95;;;;;;;;;;5097464;28;20608;-86
2021/06/14 06:37:11;;;;;;;4.97;2.38;;;;;;;;;;5097503;28;20226;-86
2021/06/14 06:39:38;;;;;;;2.95;2.58;;;;;;;;;;5097880;28;20235;-85
2021/06/14 06:42:07;;;;;;;3.28;2.63;;;;;;;;;;5097547;28;20184;-86
2021/06/14 06:44:38;;;;;;;3.17;2.00;;;;;;;;;;5098025;28;20185;-85
2021/06/14 06:47:06;;;;;;;3.55;2.38;;;;;;;;;;5097161;28;20185;-85
2021/06/14 06:49:34;;;;;;;3.22;2.40;;;;;;;;;;5096984;28;20513;-86
2021/06/14 06:52:02;;;;;;;4.68;2.47;;;;;;;;;;5096889;28;20208;-86
2021/06/14 06:54:30;;;;;;;5.60;3.30;;;;;;;;;;5097873;28;20207;-86
2021/06/14 06:56:57;;;;;;;3.33;2.78;;;;;;;;;;5097897;28;20736;-87
2021/06/14 06:59:25;;;;;;;3.95;2.25;;;;;;;;;;5100233;28;20648;-86
2021/06/14 07:01:54;;;;;;;3.08;2.78;;;;;;;;;;5100708;28;20188;-86
2021/06/14 07:04:22;;;;;;;2.50;2.30;;;;;;;;;;5100966;28;20722;-86
2021/06/14 07:06:51;;;;;;;5.50;2.95;;;;;;;;;;5100519;28;20193;-86
2021/06/14 07:09:18;;;;;;;2.65;1.90;;;;;;;;;;5102789;28;20800;-86
2021/06/14 07:11:45;;;;;;;3.95;2.15;;;;;;;;;;5101959;28;20204;-86
2021/06/14 07:14:13;;;;;;;3.10;2.38;;;;;;;;;;5099677;28;20222;-85
2021/06/14 07:16:40;;;;;;;2.45;2.25;;;;;;;;;;5098446;28;20188;-86
2021/06/14 07:19:09;;;;;;;4.68;2.63;;;;;;;;;;5097109;28;20231;-85
2021/06/14 07:21:37;;;;;;;2.72;2.53;;;;;;;;;;5097092;28;20204;-86
2021/06/14 07:24:05;;;;;;;2.95;2.33;;;;;;;;;;5098373;28;20734;-87
2021/06/14 07:26:33;;;;;;;3.78;2.10;;;;;;;;;;5098177;28;20189;-87
2021/06/14 07:29:01;;;;;;;3.03;2.30;;;;;;;;;;5099286;28;20220;-87
2021/06/14 07:31:29;;;;;;;2.53;1.88;;;;;;;;;;5099035;28;20212;-87
2021/06/14 07:33:58;;;;;;;2.35;2.15;;;;;;;;;;5100426;28;20272;-87
2021/06/14 07:36:27;;;;;;;2.40;2.15;;;;;;;;;;5101858;28;20639;-87
2021/06/14 07:38:54;;;;;;;2.58;2.10;;;;;;;;;;5099900;28;20230;-89
2021/06/14 07:41:22;;;;;;;2.90;2.15;;;;;;;;;;5099450;28;20312;-87
2021/06/14 07:43:51;;;;;;;2.38;2.17;;;;;;;;;;5099510;28;20192;-88
2021/06/14 07:46:18;;;;;;;2.25;2.05;;;;;;;;;;5099483;28;20212;-87
2021/06/14 07:48:46;;;;;;;2.47;1.85;;;;;;;;;;5099617;28;20302;-86
2021/06/14 07:51:14;;;;;;;1.92;1.83;;;;;;;;;;5099196;28;20670;-86
2021/06/14 07:53:43;;;;;;;3.22;2.50;;;;;;;;;;5098455;28;20199;-86
2021/06/14 07:56:16;;;;;;;1.67;1.50;;;;;;;;;;5099223;28;20188;-86
2021/06/14 07:58:44;;;;;;;1.52;1.42;;;;;;;;;;5097965;28;20273;-86
2021/06/14 08:01:11;;;;;;;1.80;1.70;;;;;;;;;;5098684;28;20306;-86
2021/06/14 08:03:38;;;;;;;3.70;1.60;;;;;;;;;;5098282;28;20604;-86
2021/06/14 08:06:06;;;;;;;1.30;1.20;;;;;;;;;;5098343;28;20227;-86
2021/06/14 08:08:34;;;;;;;1.88;1.23;;;;;;;;;;5094348;28;20577;-87
2021/06/14 08:11:03;;;;;;;2.38;2.17;;;;;;;;;;5093700;28;20638;-86
2021/06/14 08:13:31;;;;;;;1.77;1.67;;;;;;;;;;5094407;28;20184;-86
2021/06/14 08:15:59;;;;;;;2.08;1.90;;;;;;;;;;5093957;28;20204;-86
2021/06/14 08:18:35;;;;;;;1.38;1.27;;;;;;;;;;5093356;28;20226;-86
2021/06/14 08:21:21;;;;;;;1.55;1.45;;;;;;;;;;5093643;28;20727;-86
2021/06/14 08:26:34;;;;;;;1.35;1.25;;;;;;;;;;5094098;28;20254;-86
2021/06/14 08:29:02;;;;;;;1.10;1.10;;;;;;;;;;5093515;28;20702;-86
2021/06/14 08:31:34;;;;;;;1.60;1.50;;;;;;;;;;5093721;28;20282;-87
2021/06/14 08:34:02;;;;;;;1.52;1.40;;;;;;;;;;5094436;28;20204;-86
2021/06/14 08:36:30;;;;;;;1.35;1.25;;;;;;;;;;5093439;28;20199;-87
2021/06/14 08:38:59;;;;;;;2.10;1.85;;;;;;;;;;5094800;28;20228;-86
2021/06/14 08:41:27;;;;;;;1.65;1.55;;;;;;;;;;5093327;28;20254;-85
2021/06/14 08:43:58;;;;;;;2.22;1.70;;;;;;;;;;5094821;28;20216;-86
2021/06/14 08:46:27;;;;;;;1.73;1.50;;;;;;;;;;5093389;28;20184;-86
2021/06/14 08:48:56;;;;;;;2.15;1.98;;;;;;;;;;5092261;28;20231;-87
2021/06/14 08:51:24;;;;;;;1.30;1.20;;;;;;;;;;5093618;28;20236;-86
2021/06/14 08:53:52;;;;;;;1.50;1.40;;;;;;;;;;5093159;28;20244;-87
2021/06/14 08:56:20;;;;;;;1.60;1.33;;;;;;;;;;5094719;28;20204;-87
2021/06/14 08:58:49;;;;;;;2.35;1.58;;;;;;;;;;5094588;28;20706;-87
2021/06/14 09:01:18;;;;;;;1.63;1.42;;;;;;;;;;5093868;28;20201;-87
2021/06/14 09:03:46;;;;;;;1.85;1.75;;;;;;;;;;5095704;28;20187;-87
2021/06/14 09:06:13;;;;;;;1.88;1.70;;;;;;;;;;5093324;28;20295;-85
2021/06/14 09:08:41;;;;;;;2.40;2.00;;;;;;;;;;5093501;28;20228;-85
2021/06/14 09:11:11;;;;;;;1.75;1.65;;;;;;;;;;5093478;28;20192;-85
2021/06/14 09:13:39;;;;;;;1.20;1.20;;;;;;;;;;5094348;28;20205;-85
2021/06/14 09:16:09;;;;;;;1.50;1.40;;;;;;;;;;5094309;28;20228;-86
2021/06/14 09:18:39;;;;;;;2.50;1.60;;;;;;;;;;5097103;28;20712;-87
2021/06/14 09:21:10;;;;;;;1.55;1.45;;;;;;;;;;5097268;28;20319;-87
2021/06/14 09:23:45;;;;;;;0.90;0.90;;;;;;;;;;5097455;28;20715;-87
2021/06/14 09:26:30;;;;;;;1.02;1.02;;;;;;;;;;5097479;28;20283;-86
2021/06/14 09:29:01;;;;;;;1.13;1.10;;;;;;;;;;5095978;28;20228;-86
2021/06/14 09:31:37;;;;;;;1.60;1.50;;;;;;;;;;5095868;28;20630;-86
2021/06/14 09:34:07;;;;;;;4.93;1.40;;;;;;;;;;5096988;28;20235;-87
2021/06/14 09:36:34;;;;;;;1.40;1.30;;;;;;;;;;5095742;28;20208;-86
2021/06/14 09:39:11;;;;;;;1.48;1.38;;;;;;;;;;5095083;28;20763;-86
2021/06/14 09:41:43;;;;;;;1.67;1.20;;;;;;;;;;5094936;28;20220;-86
2021/06/14 09:44:11;;;;;;;1.20;1.10;;;;;;;;;;5096521;28;20200;-86
2021/06/14 09:46:39;;;;;;;1.40;1.30;;;;;;;;;;5093863;28;20200;-86
2021/06/14 09:49:18;;;;;;;1.60;1.50;;;;;;;;;;5092829;28;20217;-86
2021/06/14 09:51:50;;;;;;;1.42;1.33;;;;;;;;;;5094641;28;20196;-86
2021/06/14 09:54:26;;;;;;;1.30;1.20;;;;;;;;;;5093917;28;20192;-86
2021/06/14 09:56:55;;;;;;;1.80;1.52;;;;;;;;;;5095320;28;20214;-86
2021/06/14 09:59:26;;;;;;;1.85;1.75;;;;;;;;;;5094346;28;20231;-85
2021/06/14 10:02:05;;;;;;;3.83;2.17;;;;;;;;;;5097333;28;20220;-85
2021/06/14 10:04:34;;;;;;;2.03;1.75;;;;;;;;;;5097824;28;20192;-86
2021/06/14 10:07:12;;;;;;;3.65;2.20;;;;;;;;;;5098488;28;20200;-86
2021/06/14 10:09:42;;;;;;;1.60;1.50;;;;;;;;;;5098102;28;20314;-86
2021/06/14 10:12:21;;;;;;;1.10;1.08;;;;;;;;;;5098677;28;20196;-86
2021/06/14 10:14:56;;;;;;;1.60;1.50;;;;;;;;;;5097678;28;20185;-86
2021/06/14 10:17:35;;;;;;;1.10;1.02;;;;;;;;;;5097940;28;20185;-86
2021/06/14 10:20:13;;;;;;;1.52;1.42;;;;;;;;;;5098146;28;20224;-86
2021/06/14 10:22:41;;;;;;;1.45;1.35;;;;;;;;;;5096912;28;20220;-87
2021/06/14 10:25:10;;;;;;;1.65;1.55;;;;;;;;;;5097367;28;20208;-85
2021/06/14 10:27:38;;;;;;;1.73;1.63;;;;;;;;;;5096963;28;20197;-86
2021/06/14 10:30:08;;;;;;;2.10;1.48;;;;;;;;;;5096657;28;20219;-85
2021/06/14 10:32:38;;;;;;;1.40;1.30;;;;;;;;;;5097361;28;20219;-86
2021/06/14 10:35:10;;;;;;;1.52;1.40;;;;;;;;;;5095591;28;20646;-87
2021/06/14 10:37:44;;;;;;;1.02;1.00;;;;;;;;;;5096215;28;20239;-86
2021/06/14 10:40:14;;;;;;;1.52;1.20;;;;;;;;;;5096863;28;20246;-86
2021/06/14 10:42:45;;;;;;;1.20;1.20;;;;;;;;;;5095493;28;20219;-85
2021/06/14 10:45:14;;;;;;;1.38;1.15;;;;;;;;;;5095337;28;20181;-85
2021/06/14 10:47:42;;;;;;;1.20;1.10;;;;;;;;;;5096302;28;20287;-85
2021/06/14 10:50:14;;;;;;;1.60;1.33;;;;;;;;;;5094398;28;20266;-85
2021/06/14 10:52:44;;;;;;;2.15;1.42;;;;;;;;;;5094986;28;20189;-86
2021/06/14 10:55:14;;;;;;;1.50;1.40;;;;;;;;;;5095569;28;20745;-85
2021/06/14 10:57:43;;;;;;;1.20;1.20;;;;;;;;;;5096436;28;20214;-87
2021/06/14 11:00:25;;;;;;;4.10;1.80;;;;;;;;;;5094479;28;20224;-88
2021/06/14 11:02:54;;;;;;;1.70;1.60;;;;;;;;;;5093109;28;20209;-87
2021/06/14 11:05:33;;;;;;;2.90;1.42;;;;;;;;;;5093935;28;20308;-86
2021/06/14 11:08:12;;;;;;;1.00;1.00;;;;;;;;;;5095034;28;20200;-86
2021/06/14 11:11:42;;;;;;;0.98;0.98;;;;;;;;;;5092759;28;20692;-86
2021/06/14 11:14:10;;;;;;;1.67;1.58;;;;;;;;;;5090627;28;20200;-85
2021/06/14 11:16:39;;;;;;;2.42;1.25;;;;;;;;;;5094056;28;20196;-83
2021/06/14 11:19:11;;;;;;;1.05;0.95;;;;;;;;;;5093587;28;20239;-85
2021/06/14 11:21:53;;;;;;;1.00;1.00;;;;;;;;;;5095547;28;20207;-86
2021/06/14 11:24:20;;;;;;;2.67;1.45;;;;;;;;;;5093511;28;20208;-86
2021/06/14 11:26:57;;;;;;;1.52;1.30;;;;;;;;;;5094152;28;20281;-87
2021/06/14 11:29:25;;;;;;;2.40;1.48;;;;;;;;;;5092614;28;20569;-86
2021/06/14 11:32:02;;;;;;;1.30;1.20;;;;;;;;;;5093466;28;20185;-86
2021/06/14 11:34:38;;;;;;;2.42;1.95;;;;;;;;;;5093258;28;20220;-85
2021/06/14 11:37:07;;;;;;;0.90;0.90;;;;;;;;;;5093822;28;20208;-86
2021/06/14 11:39:35;;;;;;;1.23;1.13;;;;;;;;;;5093870;28;20290;-86
2021/06/14 11:42:15;;;;;;;0.68;0.68;;;;;;;;;;5092278;28;20179;-86
2021/06/14 11:44:54;;;;;;;1.20;1.10;;;;;;;;;;5092646;28;20219;-86
2021/06/14 11:47:25;;;;;;;1.38;1.27;;;;;;;;;;5091346;28;20898;-86
2021/06/14 11:49:55;;;;;;;1.50;1.40;;;;;;;;;;5092163;28;20604;-85
2021/06/14 11:52:31;;;;;;;1.40;1.30;;;;;;;;;;5089693;28;20580;-86
2021/06/14 11:55:02;;;;;;;2.55;1.60;;;;;;;;;;5090782;28;20203;-87
2021/06/14 11:57:33;;;;;;;1.60;1.50;;;;;;;;;;5091651;28;20196;-87
2021/06/14 12:00:01;;;;;;;1.80;1.50;;;;;;;;;;5091592;28;20219;-86
2021/06/14 12:02:30;;;;;;;1.17;1.08;;;;;;;;;;5091441;28;20203;-86
2021/06/14 12:05:01;;;;;;;1.30;1.20;;;;;;;;;;5088540;28;20203;-86
2021/06/14 12:07:35;;;;;;;1.50;1.40;;;;;;;;;;5091635;28;20184;-89
2021/06/14 12:10:07;;;;;;;1.90;1.60;;;;;;;;;;5091624;28;20223;-92
2021/06/14 12:12:36;;;;;;;1.45;1.35;;;;;;;;;;5092589;28;20208;-86
2021/06/14 12:15:05;;;;;;;1.60;1.50;;;;;;;;;;5090542;28;20662;-86
2021/06/14 12:17:35;;;;;;;2.60;1.55;;;;;;;;;;5092024;28;20205;-86
2021/06/14 12:20:04;;;;;;;4.18;1.30;;;;;;;;;;5091447;28;20714;-86
2021/06/14 12:22:33;;;;;;;1.13;1.00;;;;;;;;;;5092037;28;20204;-86
2021/06/14 12:25:08;;;;;;;1.10;1.10;;;;;;;;;;5091507;28;20597;-86
2021/06/14 12:27:35;;;;;;;1.38;1.27;;;;;;;;;;5090540;28;20202;-86
2021/06/14 12:30:07;;;;;;;1.67;1.58;;;;;;;;;;5088998;28;20703;-87
2021/06/14 12:32:34;;;;;;;1.70;1.00;;;;;;;;;;5091168;28;20192;-87
2021/06/14 12:35:07;;;;;;;0.80;0.80;;;;;;;;;;5091860;28;20196;-88
2021/06/14 12:37:39;;;;;;;1.70;1.48;;;;;;;;;;5091814;28;20203;-87
2021/06/14 12:40:10;;;;;;;1.08;1.08;;;;;;;;;;5091229;28;20259;-86
2021/06/14 12:42:39;;;;;;;1.00;1.00;;;;;;;;;;5090672;28;20200;-87
2021/06/14 12:45:10;;;;;;;1.60;1.50;;;;;;;;;;5088712;28;20223;-87
2021/06/14 12:47:43;;;;;;;1.52;1.42;;;;;;;;;;5083067;28;20193;-87
2021/06/14 12:50:15;;;;;;;1.73;1.63;;;;;;;;;;5091255;28;20335;-87
2021/06/14 12:52:44;;;;;;;2.00;1.80;;;;;;;;;;5080252;28;20204;-87
2021/06/14 12:55:19;;;;;;;2.38;1.20;;;;;;;;;;5090088;28;20266;-86
2021/06/14 12:57:46;;;;;;;1.38;1.27;;;;;;;;;;5086053;28;20709;-85
2021/06/14 13:00:17;;;;;;;2.00;1.52;;;;;;;;;;5092011;28;20216;-87
2021/06/14 13:02:47;;;;;;;1.40;1.30;;;;;;;;;;5091398;28;20283;-86
2021/06/14 13:05:17;;;;;;;1.27;1.17;;;;;;;;;;5091090;28;20247;-86
2021/06/14 13:08:00;;;;;;;1.00;1.00;;;;;;;;;;5092319;28;20203;-88
2021/06/14 13:10:31;;;;;;;1.17;1.15;;;;;;;;;;5091420;28;20188;-87
2021/06/14 13:12:59;;;;;;;1.20;1.10;;;;;;;;;;5092050;28;20192;-86
2021/06/14 13:15:31;;;;;;;1.00;1.00;;;;;;;;;;5092209;28;20200;-87
2021/06/14 13:17:59;;;;;;;1.63;1.52;;;;;;;;;;5092333;28;20257;-87
2021/06/14 13:20:33;;;;;;;0.90;0.85;;;;;;;;;;5092200;28;20191;-87
2021/06/14 13:23:11;;;;;;;0.93;0.90;;;;;;;;;;5092033;28;20188;-87
2021/06/14 13:25:42;;;;;;;0.73;0.73;;;;;;;;;;5092793;28;20226;-87
2021/06/14 13:28:10;;;;;;;0.70;0.70;;;;;;;;;;5092253;28;20184;-88
2021/06/14 13:30:40;;;;;;;1.15;1.15;;;;;;;;;;5111573;28;20192;-86
2021/06/14 13:33:18;;;;;;;1.00;1.00;;;;;;;;;;5095048;28;20192;-87
2021/06/14 13:35:52;;;;;;;1.42;1.33;;;;;;;;;;5093880;28;20282;-86
2021/06/14 13:38:25;;;;;;;1.40;1.38;;;;;;;;;;5096556;28;20185;-87
2021/06/14 13:40:54;;;;;;;1.05;1.05;;;;;;;;;;5096629;28;20188;-85
2021/06/14 13:43:27;;;;;;;1.45;1.35;;;;;;;;;;5095235;28;20248;-87
2021/06/14 13:45:55;;;;;;;1.02;1.02;;;;;;;;;;5095318;28;20716;-87
2021/06/14 13:48:23;;;;;;;1.30;1.17;;;;;;;;;;5096471;28;20605;-87
2021/06/14 13:50:56;;;;;;;1.92;1.02;;;;;;;;;;5096215;28;20228;-87
2021/06/14 13:53:27;;;;;;;0.90;0.90;;;;;;;;;;5097080;28;20222;-88
2021/06/14 13:55:57;;;;;;;1.02;1.02;;;;;;;;;;5095313;28;20196;-86
2021/06/14 13:58:35;;;;;;;0.90;0.90;;;;;;;;;;5094934;28;20278;-87
2021/06/14 14:01:13;;;;;;;1.00;1.00;;;;;;;;;;5095479;28;20204;-87
2021/06/14 14:03:42;;;;;;;1.25;1.15;;;;;;;;;;5094901;28;20385;-87
2021/06/14 14:06:10;;;;;;;0.68;0.68;;;;;;;;;;5095330;28;20575;-86
2021/06/14 14:08:39;;;;;;;0.90;0.90;;;;;;;;;;5096233;28;20212;-87
2021/06/14 14:11:06;;;;;;;1.85;1.33;;;;;;;;;;5095878;28;20564;-87
2021/06/14 14:13:33;;;;;;;2.03;1.52;;;;;;;;;;5096235;28;20184;-87
2021/06/14 14:16:01;;;;;;;1.40;1.30;;;;;;;;;;5095772;28;20710;-87
2021/06/14 14:18:28;;;;;;;1.40;1.30;;;;;;;;;;5094967;28;20219;-87
2021/06/14 14:20:56;;;;;;;1.88;1.10;;;;;;;;;;5094019;28;20207;-87
2021/06/14 14:23:23;;;;;;;1.38;1.10;;;;;;;;;;5094414;28;20200;-86
2021/06/14 14:25:52;;;;;;;1.55;1.45;;;;;;;;;;5094488;28;20228;-86
2021/06/14 14:28:19;;;;;;;1.75;1.13;;;;;;;;;;5094575;28;20665;-85
2021/06/14 14:30:49;;;;;;;2.00;1.58;;;;;;;;;;5094858;28;20212;-87
2021/06/14 14:33:17;;;;;;;1.60;1.20;;;;;;;;;;5095087;28;20635;-87
2021/06/14 14:36:07;;;;;;;2.13;1.92;;;;;;;;;;5095300;28;20191;-87
2021/06/14 14:38:37;;;;;;;1.00;1.00;;;;;;;;;;5090843;28;20220;-87
2021/06/14 14:41:09;;;;;;;1.40;1.33;;;;;;;;;;5095006;28;20212;-87
2021/06/14 14:43:37;;;;;;;1.73;1.50;;;;;;;;;;5094902;28;20203;-87
2021/06/14 14:46:06;;;;;;;1.35;1.25;;;;;;;;;;5094733;28;20230;-87
2021/06/14 14:48:33;;;;;;;1.42;1.33;;;;;;;;;;5093815;28;20218;-86
2021/06/14 14:51:01;;;;;;;1.23;1.20;;;;;;;;;;5094960;28;20236;-87
2021/06/14 14:53:29;;;;;;;1.27;1.17;;;;;;;;;;5095638;28;20187;-85
2021/06/14 14:55:57;;;;;;;1.15;1.13;;;;;;;;;;5095467;28;20176;-84
2021/06/14 14:58:26;;;;;;;1.70;1.60;;;;;;;;;;5097681;28;20616;-84
2021/06/14 15:00:53;;;;;;;1.85;1.73;;;;;;;;;;5095795;28;20204;-85
2021/06/14 15:03:21;;;;;;;1.10;1.10;;;;;;;;;;5095680;28;20200;-85